Time;durP1;ratioP1;P1;durP2;ratioP2;P2;SDS_P1;SDS_P2;PMS_P1;PMS_P2;Temp;Humidity;BMP_temperature;BMP_pressure;BME280_temperature;BME280_humidity;BME280_pressure;Samples;Min_cycle;Max_cycle;Signal;HPM_P1;HPM_P2
2021/04/09 00:02:12;;;;;;;13.15;4.05;;;4.60;99.90;;;;;;5032163;28;20509;-74
2021/04/09 00:04:38;;;;;;;8.30;4.25;;;4.60;99.90;;;;;;5032497;28;20067;-73
2021/04/09 00:07:05;;;;;;;12.13;4.28;;;4.60;99.90;;;;;;5032203;28;20061;-73
2021/04/09 00:09:31;;;;;;;10.30;4.20;;;4.60;99.90;;;;;;5031920;28;20115;-74
2021/04/09 00:11:58;;;;;;;13.57;4.63;;;4.60;99.90;;;;;;5031684;28;20466;-73
2021/04/09 00:14:23;;;;;;;10.27;4.30;;;4.50;99.90;;;;;;5032034;28;20029;-73
2021/04/09 00:16:49;;;;;;;16.58;4.13;;;4.50;99.90;;;;;;5031776;28;20087;-73
2021/04/09 00:19:18;;;;;;;13.27;4.13;;;4.60;99.90;;;;;;5031926;28;20029;-73
2021/04/09 00:21:44;;;;;;;19.17;4.20;;;4.50;99.90;;;;;;5032076;28;20466;-74
2021/04/09 00:24:12;;;;;;;10.88;5.18;;;4.50;99.90;;;;;;5031943;28;20467;-72
2021/04/09 00:26:38;;;;;;;14.30;4.32;;;4.50;99.90;;;;;;5031817;28;20040;-74
2021/04/09 00:29:04;;;;;;;10.38;4.00;;;4.50;99.90;;;;;;5031624;28;20041;-73
2021/04/09 00:31:31;;;;;;;5.90;3.28;;;4.50;99.90;;;;;;5030815;28;20356;-73
2021/04/09 00:33:58;;;;;;;10.60;3.72;;;4.50;99.90;;;;;;5047231;28;20040;-73
2021/04/09 00:36:24;;;;;;;14.73;4.43;;;4.40;99.90;;;;;;5031664;28;20022;-74
2021/04/09 00:38:50;;;;;;;8.65;4.15;;;4.30;99.90;;;;;;5046766;28;20063;-73
2021/04/09 00:41:16;;;;;;;6.90;3.80;;;4.30;99.90;;;;;;5031994;28;20057;-72
2021/04/09 00:43:44;;;;;;;8.25;3.40;;;4.30;99.90;;;;;;5031998;28;20030;-72
2021/04/09 00:46:10;;;;;;;8.85;4.25;;;4.40;99.90;;;;;;5046829;28;20030;-73
2021/04/09 00:48:36;;;;;;;10.00;3.90;;;4.40;99.90;;;;;;5031900;28;20111;-73
2021/04/09 00:51:05;;;;;;;7.07;3.78;;;4.40;99.90;;;;;;5031130;28;20057;-73
2021/04/09 00:53:31;;;;;;;9.45;3.70;;;4.40;99.90;;;;;;5050612;28;20052;-73
2021/04/09 00:55:57;;;;;;;9.38;3.63;;;4.40;99.90;;;;;;5035130;28;20037;-73
2021/04/09 00:58:23;;;;;;;13.93;3.97;;;4.40;99.90;;;;;;5050506;28;20470;-73
2021/04/09 01:00:49;;;;;;;10.02;4.00;;;4.40;99.90;;;;;;5050173;28;20107;-73
2021/04/09 01:03:16;;;;;;;6.95;3.70;;;4.40;99.90;;;;;;5050657;28;20025;-73
2021/04/09 01:05:42;;;;;;;9.52;3.83;;;4.40;99.90;;;;;;5035358;28;20120;-73
2021/04/09 01:08:08;;;;;;;10.10;3.75;;;4.40;99.90;;;;;;5035211;28;20109;-74
2021/04/09 01:10:34;;;;;;;6.88;3.05;;;4.40;99.90;;;;;;5034757;28;20502;-75
2021/04/09 01:13:00;;;;;;;10.02;3.42;;;4.50;99.90;;;;;;5050296;28;20084;-73
2021/04/09 01:15:26;;;;;;;10.15;3.25;;;4.40;99.90;;;;;;5035180;28;20459;-73
2021/04/09 01:18:24;;;;;;;7.85;3.45;;;4.30;99.90;;;;;;5050363;28;20029;-74
2021/04/09 01:21:19;;;;;;;12.73;3.30;;;4.40;99.90;;;;;;5034716;28;20036;-73
2021/04/09 01:24:10;;;;;;;12.52;3.88;;;4.30;99.90;;;;;;5031106;28;20065;-73
2021/04/09 01:26:54;;;;;;;10.38;3.35;;;4.40;99.90;;;;;;5049637;28;20044;-73
2021/04/09 01:29:47;;;;;;;7.13;3.17;;;4.40;99.90;;;;;;5034575;28;20494;-73
2021/04/09 01:32:14;;;;;;;9.65;4.72;;;4.40;99.90;;;;;;5034710;28;20068;-74
2021/04/09 01:34:46;;;;;;;9.27;4.15;;;4.40;99.90;;;;;;5050011;28;20034;-73
2021/04/09 01:37:21;;;;;;;8.77;3.58;;;4.40;99.90;;;;;;5049731;28;20033;-74
2021/04/09 01:40:14;;;;;;;7.32;3.83;;;4.40;99.90;;;;;;5034756;28;20033;-73
2021/04/09 01:42:43;;;;;;;9.43;4.03;;;4.30;99.90;;;;;;5049300;28;20386;-73
2021/04/09 01:45:12;;;;;;;13.80;4.43;;;4.40;99.90;;;;;;5016762;28;20394;-73
2021/04/09 01:47:41;;;;;;;10.10;4.93;;;4.40;99.90;;;;;;5049337;28;20394;-74
2021/04/09 01:50:13;;;;;;;11.57;4.60;;;4.30;99.90;;;;;;5032866;28;20140;-74
2021/04/09 01:52:41;;;;;;;10.25;4.78;;;4.30;99.90;;;;;;5034402;28;20061;-73
2021/04/09 01:55:08;;;;;;;8.50;4.07;;;4.30;99.90;;;;;;5034339;28;20033;-74
2021/04/09 01:57:37;;;;;;;9.82;4.55;;;4.30;99.90;;;;;;5049369;28;20490;-74
2021/04/09 02:00:09;;;;;;;11.30;3.95;;;4.20;99.90;;;;;;5034146;28;20074;-74
2021/04/09 02:02:35;;;;;;;;;;;4.20;99.90;;;;;;5033782;28;20038;-73
2021/04/09 02:05:01;;;;;;;9.45;4.05;;;4.20;99.90;;;;;;5049542;28;19920;-73
2021/04/09 02:07:28;;;;;;;8.13;3.95;;;4.10;99.90;;;;;;5049544;28;20034;-73
2021/04/09 02:09:56;;;;;;;9.73;4.38;;;4.10;99.90;;;;;;5048746;28;20052;-73
2021/04/09 02:12:22;;;;;;;10.98;4.50;;;4.10;99.90;;;;;;5048946;28;20029;-74
2021/04/09 02:14:53;;;;;;;12.25;4.25;;;4.10;99.90;;;;;;5049317;28;20120;-73
2021/04/09 02:17:19;;;;;;;;;;;4.10;99.90;;;;;;5034487;28;20034;-73
2021/04/09 02:19:45;;;;;;;8.75;3.90;;;4.10;99.90;;;;;;5049358;28;20374;-74
2021/04/09 02:22:11;;;;;;;9.35;4.38;;;4.10;99.90;;;;;;5049196;28;20241;-74
2021/04/09 02:24:38;;;;;;;11.05;4.47;;;4.10;99.90;;;;;;5049174;28;20025;-74
2021/04/09 02:27:05;;;;;;;9.48;4.68;;;4.10;99.90;;;;;;5049091;28;20069;-74
2021/04/09 02:29:35;;;;;;;10.65;4.68;;;4.00;99.90;;;;;;5033634;28;20029;-74
2021/04/09 02:32:01;;;;;;;12.40;4.80;;;4.00;99.90;;;;;;5048982;28;20108;-74
2021/04/09 02:34:28;;;;;;;10.30;4.68;;;4.00;99.90;;;;;;5033562;28;20029;-74
2021/04/09 02:36:54;;;;;;;9.00;4.70;;;4.00;99.90;;;;;;5033266;28;20387;-74
2021/04/09 02:39:28;;;;;;;10.68;4.60;;;3.90;99.90;;;;;;5033459;28;20532;-74
2021/04/09 02:42:04;;;;;;;16.25;4.35;;;3.90;99.90;;;;;;5048497;28;20069;-74
2021/04/09 02:44:30;;;;;;;11.75;4.85;;;3.90;99.90;;;;;;5048805;28;20470;-74
2021/04/09 02:47:08;;;;;;;12.95;5.35;;;3.90;99.90;;;;;;5048691;28;20037;-74
2021/04/09 02:49:46;;;;;;;11.30;4.85;;;3.90;99.90;;;;;;5033268;28;20528;-73
2021/04/09 02:52:25;;;;;;;9.30;4.78;;;3.90;99.90;;;;;;5047712;28;20033;-74
2021/04/09 02:54:53;;;;;;;10.82;5.20;;;3.80;99.90;;;;;;5048349;28;20554;-74
2021/04/09 02:57:23;;;;;;;12.10;5.20;;;3.80;99.90;;;;;;5048471;28;20068;-74
2021/04/09 02:59:54;;;;;;;11.15;5.00;;;3.80;99.90;;;;;;5048525;28;20029;-74
2021/04/09 03:02:22;;;;;;;11.68;5.75;;;3.90;99.90;;;;;;5048204;28;20034;-74
2021/04/09 03:04:48;;;;;;;9.65;6.22;;;3.90;99.90;;;;;;5032653;28;20560;-74
2021/04/09 03:07:16;;;;;;;10.85;5.32;;;3.90;99.90;;;;;;5033002;28;20041;-74
2021/04/09 03:09:42;;;;;;;10.50;5.18;;;3.90;99.90;;;;;;5047832;28;20050;-74
2021/04/09 03:12:17;;;;;;;9.35;5.05;;;3.90;99.90;;;;;;5047975;28;20033;-74
2021/04/09 03:14:46;;;;;;;17.02;5.95;;;3.80;99.90;;;;;;5032711;28;20041;-74
2021/04/09 03:17:22;;;;;;;9.95;5.13;;;3.80;99.90;;;;;;5047846;28;20048;-74
2021/04/09 03:19:48;;;;;;;10.93;4.50;;;3.80;99.90;;;;;;5031404;28;20049;-74
2021/04/09 03:22:14;;;;;;;10.65;5.20;;;3.80;99.90;;;;;;5048034;28;20029;-74
2021/04/09 03:24:40;;;;;;;17.05;5.60;;;3.80;99.90;;;;;;5032414;28;20486;-74
2021/04/09 03:27:09;;;;;;;11.13;5.50;;;3.80;99.90;;;;;;5032687;28;20156;-74
2021/04/09 03:29:35;;;;;;;12.48;4.90;;;3.70;99.90;;;;;;5032367;28;20039;-74
2021/04/09 03:32:02;;;;;;;16.45;5.43;;;3.70;99.90;;;;;;5032563;28;20033;-74
2021/04/09 03:34:28;;;;;;;16.05;5.68;;;3.70;99.90;;;;;;5032628;28;20025;-74
2021/04/09 03:36:54;;;;;;;10.85;5.50;;;3.70;99.90;;;;;;5031061;28;20497;-73
2021/04/09 03:39:20;;;;;;;13.02;5.43;;;3.60;99.90;;;;;;5032412;28;20030;-74
2021/04/09 03:41:46;;;;;;;10.73;5.53;;;3.60;99.90;;;;;;5032341;28;20435;-74
2021/04/09 03:44:11;;;;;;;17.75;4.70;;;3.60;99.90;;;;;;5032056;28;20026;-74
2021/04/09 03:46:37;;;;;;;17.05;6.82;;;3.50;99.90;;;;;;5032504;28;20483;-74
2021/04/09 03:49:06;;;;;;;11.15;5.30;;;3.50;99.90;;;;;;5030658;28;20056;-73
2021/04/09 03:51:32;;;;;;;10.32;5.35;;;3.50;99.90;;;;;;5032075;28;20034;-73
2021/04/09 03:53:58;;;;;;;11.55;6.10;;;3.50;99.90;;;;;;5031069;28;20064;-73
2021/04/09 03:56:24;;;;;;;11.50;5.80;;;3.50;99.90;;;;;;5032334;28;20056;-73
2021/04/09 03:58:51;;;;;;;13.32;6.05;;;3.50;99.90;;;;;;5032409;28;20042;-73
2021/04/09 04:01:17;;;;;;;12.68;4.15;;;3.50;99.90;;;;;;5001712;28;20049;-73
2021/04/09 04:03:46;;;;;;;10.80;5.15;;;3.40;99.90;;;;;;5032488;28;20056;-73
2021/04/09 04:06:12;;;;;;;13.10;4.68;;;3.30;99.90;;;;;;5052116;28;20040;-73
2021/04/09 04:08:37;;;;;;;12.15;4.60;;;3.20;99.90;;;;;;5052221;28;20037;-74
2021/04/09 04:11:12;;;;;;;10.80;4.72;;;3.10;99.90;;;;;;5043560;28;20048;-76
2021/04/09 04:13:37;;;;;;;10.02;4.15;;;3.00;99.90;;;;;;5032300;28;20474;-75
2021/04/09 04:16:04;;;;;;;9.52;4.10;;;3.00;99.90;;;;;;5032035;28;20037;-75
2021/04/09 04:18:29;;;;;;;9.73;4.32;;;2.90;99.90;;;;;;5031997;28;20536;-74
2021/04/09 04:20:55;;;;;;;11.40;4.50;;;2.90;99.90;;;;;;5032304;28;20033;-76
2021/04/09 04:23:21;;;;;;;11.20;4.72;;;2.90;99.90;;;;;;5032195;28;20040;-75
2021/04/09 04:25:47;;;;;;;11.02;4.60;;;2.90;99.90;;;;;;5032350;28;20053;-76
2021/04/09 04:28:15;;;;;;;10.38;4.93;;;2.90;99.90;;;;;;5035873;28;20021;-68
2021/04/09 04:30:50;;;;;;;9.75;4.13;;;2.90;99.90;;;;;;5035344;28;20469;-75
2021/04/09 04:33:20;;;;;;;10.50;4.78;;;2.80;99.90;;;;;;5050480;28;20034;-73
2021/04/09 04:35:47;;;;;;;11.97;5.20;;;2.80;99.90;;;;;;5035528;28;20068;-72
2021/04/09 04:38:14;;;;;;;7.75;3.88;;;2.80;99.90;;;;;;5035385;28;20346;-75
2021/04/09 04:40:40;;;;;;;8.98;4.05;;;2.80;99.90;;;;;;5035631;28;20041;-75
2021/04/09 04:43:06;;;;;;;8.13;4.00;;;2.90;99.90;;;;;;5035665;28;20033;-79
2021/04/09 04:45:33;;;;;;;11.75;4.15;;;2.80;99.90;;;;;;5035496;28;20034;-77
2021/04/09 04:47:59;;;;;;;7.40;4.10;;;2.80;99.90;;;;;;5035855;28;20033;-74
2021/04/09 04:50:25;;;;;;;12.05;4.72;;;2.80;99.90;;;;;;5035284;28;20029;-73
2021/04/09 04:52:51;;;;;;;9.80;4.18;;;2.90;99.90;;;;;;5050589;28;20052;-73
2021/04/09 04:55:17;;;;;;;13.38;4.63;;;2.90;99.90;;;;;;5035001;28;20025;-75
2021/04/09 04:57:46;;;;;;;10.32;4.20;;;3.00;99.90;;;;;;5035643;28;20360;-74
2021/04/09 05:00:12;;;;;;;8.82;3.92;;;3.00;99.90;;;;;;5033661;28;20037;-74
2021/04/09 05:02:38;;;;;;;6.97;3.88;;;3.10;99.90;;;;;;5035490;28;20037;-75
2021/04/09 05:05:07;;;;;;;10.18;4.85;;;3.10;99.90;;;;;;5050449;28;20040;-76
2021/04/09 05:07:33;;;;;;;17.52;4.93;;;3.20;99.90;;;;;;5050850;28;20036;-79
2021/04/09 05:09:59;;;;;;;14.80;3.90;;;3.10;99.90;;;;;;5027990;28;20049;-73
2021/04/09 05:12:24;;;;;;;9.38;3.72;;;3.00;99.90;;;;;;5034484;28;20030;-73
2021/04/09 05:14:54;;;;;;;9.80;4.00;;;3.10;99.90;;;;;;5035318;28;20069;-73
2021/04/09 05:17:20;;;;;;;13.60;4.75;;;3.20;99.90;;;;;;5034734;28;20095;-73
2021/04/09 05:19:46;;;;;;;13.27;3.85;;;3.30;99.90;;;;;;5034651;28;20446;-74
2021/04/09 05:22:12;;;;;;;8.68;4.35;;;3.20;99.90;;;;;;5034880;28;20108;-74
2021/04/09 05:24:38;;;;;;;8.35;3.90;;;3.20;99.90;;;;;;5034868;28;20021;-74
2021/04/09 05:27:05;;;;;;;8.52;3.88;;;3.20;99.90;;;;;;5034710;28;20075;-74
2021/04/09 05:29:31;;;;;;;11.43;4.10;;;3.20;99.90;;;;;;5034727;28;20544;-74
2021/04/09 05:31:58;;;;;;;11.63;4.70;;;3.30;99.90;;;;;;5049917;28;20046;-74
2021/04/09 05:34:23;;;;;;;10.13;4.45;;;3.30;99.90;;;;;;5034313;28;20439;-74
2021/04/09 05:36:52;;;;;;;8.88;4.07;;;3.30;99.90;;;;;;5032943;28;20072;-73
2021/04/09 05:39:18;;;;;;;10.30;4.50;;;3.40;99.90;;;;;;5034318;28;20037;-73
2021/04/09 05:41:44;;;;;;;8.38;4.10;;;3.40;99.90;;;;;;5050107;28;20026;-73
2021/04/09 05:44:09;;;;;;;9.65;4.57;;;3.40;99.90;;;;;;5034104;28;20031;-73
2021/04/09 05:46:35;;;;;;;9.07;4.15;;;3.40;99.90;;;;;;5034495;28;20051;-74
2021/04/09 05:49:01;;;;;;;7.32;3.28;;;3.40;99.90;;;;;;5034194;28;20025;-75
2021/04/09 05:51:28;;;;;;;8.15;4.00;;;3.30;99.90;;;;;;5034211;28;20037;-73
2021/04/09 05:53:53;;;;;;;13.82;4.68;;;3.30;99.90;;;;;;5049364;28;20030;-74
2021/04/09 05:56:19;;;;;;;9.88;4.55;;;3.30;99.90;;;;;;5041104;28;20530;-73
2021/04/09 05:58:45;;;;;;;9.25;4.35;;;3.40;99.90;;;;;;5053873;28;20029;-74
2021/04/09 06:01:10;;;;;;;9.23;4.30;;;3.60;99.90;;;;;;5053998;28;20501;-74
2021/04/09 06:03:36;;;;;;;14.82;5.05;;;3.70;99.90;;;;;;5054298;28;20040;-73
2021/04/09 06:06:02;;;;;;;9.73;4.22;;;3.80;99.90;;;;;;5054060;28;20516;-74
2021/04/09 06:08:27;;;;;;;7.75;4.15;;;4.10;99.90;;;;;;5053586;28;20044;-73
2021/04/09 06:10:53;;;;;;;13.13;4.72;;;4.30;99.90;;;;;;5053815;28;20171;-74
2021/04/09 06:13:19;;;;;;;8.60;4.18;;;4.50;99.90;;;;;;5052287;28;20025;-75
2021/04/09 06:15:45;;;;;;;10.23;4.68;;;4.60;99.90;;;;;;5052410;28;20075;-74
2021/04/09 06:18:11;;;;;;;11.15;4.70;;;4.70;99.90;;;;;;5053754;28;20343;-75
2021/04/09 06:20:37;;;;;;;10.18;4.43;;;4.70;99.90;;;;;;5053953;28;20063;-74
2021/04/09 06:23:06;;;;;;;7.60;4.07;;;4.70;99.90;;;;;;5053684;28;20049;-75
2021/04/09 06:25:31;;;;;;;8.65;4.28;;;4.80;99.90;;;;;;5053448;28;20389;-73
2021/04/09 06:27:57;;;;;;;6.90;3.45;;;4.90;99.90;;;;;;5053677;28;20100;-72
2021/04/09 06:30:23;;;;;;;9.20;4.90;;;5.00;99.90;;;;;;5052758;28;20040;-72
2021/04/09 06:32:49;;;;;;;12.45;5.18;;;5.00;99.90;;;;;;5051896;28;20071;-71
2021/04/09 06:35:15;;;;;;;7.60;3.78;;;5.10;99.90;;;;;;5053342;28;20029;-72
2021/04/09 06:37:41;;;;;;;9.38;4.45;;;5.10;99.90;;;;;;5053307;28;20051;-72
2021/04/09 06:40:10;;;;;;;10.60;4.53;;;5.30;99.90;;;;;;5053222;28;20481;-73
2021/04/09 06:42:36;;;;;;;10.23;4.28;;;5.40;99.90;;;;;;5052891;28;20501;-72
2021/04/09 06:45:04;;;;;;;10.25;4.15;;;5.40;99.90;;;;;;5052160;28;20065;-73
2021/04/09 06:47:32;;;;;;;12.05;5.00;;;5.30;99.90;;;;;;5052767;28;20130;-73
2021/04/09 06:49:59;;;;;;;9.98;4.40;;;5.40;99.90;;;;;;5034876;28;20032;-72
2021/04/09 06:52:30;;;;;;;9.93;4.70;;;5.60;99.90;;;;;;5052695;28;20382;-73
2021/04/09 06:54:59;;;;;;;11.70;4.07;;;5.70;99.90;;;;;;5053119;28;20470;-72
2021/04/09 06:57:25;;;;;;;10.75;4.93;;;5.70;99.90;;;;;;5051639;28;20025;-78
2021/04/09 06:59:53;;;;;;;8.63;4.55;;;5.80;99.90;;;;;;5051753;28;20028;-74
2021/04/09 07:02:19;;;;;;;8.65;4.28;;;6.00;99.90;;;;;;5051534;28;20036;-73
2021/04/09 07:04:46;;;;;;;10.02;4.00;;;5.90;99.90;;;;;;5052956;28;20032;-74
2021/04/09 07:07:16;;;;;;;10.10;3.83;;;6.10;99.90;;;;;;5052321;28;20524;-74
2021/04/09 07:09:44;;;;;;;8.30;3.75;;;6.20;99.00;;;;;;5052193;28;20045;-73
2021/04/09 07:12:26;;;;;;;7.80;4.22;;;6.30;99.30;;;;;;5051238;28;20028;-75
2021/04/09 07:14:58;;;;;;;12.38;4.20;;;6.30;98.80;;;;;;5052696;28;20051;-73
2021/04/09 07:17:28;;;;;;;8.60;4.25;;;6.40;98.70;;;;;;5052468;28;20033;-74
2021/04/09 07:20:20;;;;;;;13.30;4.43;;;6.40;98.40;;;;;;5052723;28;20116;-74
2021/04/09 07:22:52;;;;;;;7.68;4.10;;;6.60;98.20;;;;;;5052669;28;20052;-74
2021/04/09 07:25:33;;;;;;;9.63;4.32;;;6.70;98.00;;;;;;5052242;28;20596;-74
2021/04/09 07:28:19;;;;;;;10.73;4.63;;;6.70;98.30;;;;;;5052676;28;20508;-74
2021/04/09 07:30:54;;;;;;;10.23;4.55;;;6.90;97.20;;;;;;5051369;28;20390;-73
2021/04/09 07:33:23;;;;;;;9.98;4.50;;;7.00;96.70;;;;;;5052269;28;20112;-73
2021/04/09 07:35:54;;;;;;;11.43;5.00;;;7.00;96.90;;;;;;5051026;28;20048;-74
2021/04/09 07:38:24;;;;;;;;;;;7.10;96.80;;;;;;5052682;28;20549;-73
2021/04/09 07:41:00;;;;;;;9.27;3.80;;;7.30;96.90;;;;;;5051226;28;19917;-73
2021/04/09 07:43:35;;;;;;;8.98;3.65;;;7.50;95.90;;;;;;5052163;28;20078;-73
2021/04/09 07:46:03;;;;;;;8.38;3.03;;;7.70;96.60;;;;;;5051238;28;20501;-73
2021/04/09 07:48:39;;;;;;;11.38;3.30;;;7.60;96.00;;;;;;5050907;28;20041;-73
2021/04/09 07:51:07;;;;;;;7.35;3.70;;;7.60;96.30;;;;;;5052097;28;20076;-74
2021/04/09 07:53:32;;;;;;;8.43;3.55;;;7.70;96.10;;;;;;5052088;28;20582;-73
2021/04/09 07:56:03;;;;;;;10.02;3.47;;;7.70;96.00;;;;;;5054743;28;20119;-74
2021/04/09 07:58:29;;;;;;;16.58;7.35;;;7.90;95.50;;;;;;5051712;28;20037;-74
2021/04/09 08:00:54;;;;;;;7.60;4.25;;;7.70;95.70;;;;;;5052989;28;20477;-74
2021/04/09 08:03:38;;;;;;;8.40;3.80;;;7.80;94.50;;;;;;5056258;28;20033;-73
2021/04/09 08:06:13;;;;;;;6.72;3.67;;;7.90;94.50;;;;;;5056071;28;20033;-76
2021/04/09 08:08:59;;;;;;;10.25;4.13;;;8.00;94.50;;;;;;5054934;28;20043;-74
2021/04/09 08:11:33;;;;;;;10.77;3.85;;;8.10;94.50;;;;;;5055469;28;20045;-75
2021/04/09 08:14:08;;;;;;;9.00;3.67;;;8.20;93.50;;;;;;5056086;28;20048;-74
2021/04/09 08:16:44;;;;;;;6.93;3.70;;;8.30;93.90;;;;;;5055945;28;20083;-75
2021/04/09 08:19:13;;;;;;;7.15;3.95;;;8.30;93.30;;;;;;5056076;28;20366;-76
2021/04/09 08:21:47;;;;;;;12.35;3.92;;;8.20;93.10;;;;;;5055875;28;20398;-74
2021/04/09 08:24:14;;;;;;;6.95;4.03;;;8.30;93.00;;;;;;5054863;28;20029;-74
2021/04/09 08:26:41;;;;;;;8.55;3.88;;;8.20;93.40;;;;;;5055597;28;20029;-75
2021/04/09 08:29:12;;;;;;;11.20;4.80;;;8.30;93.90;;;;;;5055567;28;20382;-75
2021/04/09 08:31:39;;;;;;;7.93;3.90;;;8.50;93.50;;;;;;5054348;28;20033;-75
2021/04/09 08:34:09;;;;;;;12.50;3.80;;;8.70;93.40;;;;;;5055469;28;20520;-76
2021/04/09 08:36:38;;;;;;;8.38;3.53;;;8.70;92.90;;;;;;5055689;28;20029;-76
2021/04/09 08:39:07;;;;;;;7.80;3.30;;;8.70;93.20;;;;;;5055533;28;20147;-75
2021/04/09 08:41:34;;;;;;;7.97;4.00;;;8.80;92.10;;;;;;5054395;28;20082;-75
2021/04/09 08:44:00;;;;;;;7.47;3.70;;;8.90;92.70;;;;;;5055549;28;20461;-75
2021/04/09 08:46:26;;;;;;;8.15;3.53;;;9.00;92.50;;;;;;5053939;28;20055;-76
2021/04/09 08:48:53;;;;;;;7.35;3.20;;;9.00;91.90;;;;;;5055852;28;20501;-74
2021/04/09 08:51:24;;;;;;;7.85;3.58;;;9.20;92.70;;;;;;5037621;28;20110;-77
2021/04/09 08:53:50;;;;;;;8.73;3.70;;;9.30;92.10;;;;;;5054283;28;20430;-74
2021/04/09 08:56:35;;;;;;;6.85;3.63;;;9.30;92.10;;;;;;5055464;28;20052;-75
2021/04/09 08:59:02;;;;;;;7.03;3.47;;;9.40;91.80;;;;;;5055221;28;20025;-74
2021/04/09 09:01:28;;;;;;;11.98;4.72;;;9.70;92.30;;;;;;5055275;28;20033;-75
2021/04/09 09:03:53;;;;;;;7.75;3.70;;;9.80;92.20;;;;;;5054901;28;20033;-75
2021/04/09 09:06:42;;;;;;;9.93;3.83;;;9.80;92.10;;;;;;5055111;28;20029;-75
2021/04/09 09:09:08;;;;;;;8.63;3.63;;;10.00;91.70;;;;;;5054823;28;20044;-75
2021/04/09 09:11:56;;;;;;;8.25;3.42;;;10.10;91.00;;;;;;5036292;28;20029;-74
2021/04/09 09:14:34;;;;;;;7.95;3.38;;;10.40;90.40;;;;;;5054826;28;20115;-75
2021/04/09 09:17:18;;;;;;;6.45;3.20;;;10.50;90.80;;;;;;5055079;28;20056;-74
2021/04/09 09:20:02;;;;;;;11.52;3.47;;;10.60;88.20;;;;;;5054921;28;20036;-75
2021/04/09 09:22:49;;;;;;;7.38;3.50;;;10.60;87.40;;;;;;5054711;28;20029;-76
2021/04/09 09:25:30;;;;;;;7.55;3.72;;;10.70;85.60;;;;;;5055131;28;20040;-76
2021/04/09 09:27:56;;;;;;;8.18;3.45;;;10.70;89.10;;;;;;5053896;28;20029;-76
2021/04/09 09:30:30;;;;;;;9.10;4.25;;;11.00;88.40;;;;;;5053043;28;20033;-76
2021/04/09 09:33:25;;;;;;;10.38;3.63;;;11.10;82.80;;;;;;5054793;28;20481;-75
2021/04/09 09:36:04;;;;;;;7.90;3.65;;;11.00;81.70;;;;;;5048740;28;20033;-76
2021/04/09 09:38:51;;;;;;;10.65;3.38;;;11.10;83.30;;;;;;5054598;28;20508;-75
2021/04/09 09:41:38;;;;;;;10.23;3.88;;;11.30;81.80;;;;;;5053425;28;20487;-75
2021/04/09 09:44:30;;;;;;;7.07;3.20;;;11.20;80.00;;;;;;5054447;28;20046;-74
2021/04/09 09:46:58;;;;;;;7.60;3.60;;;11.30;78.30;;;;;;5054541;28;20028;-76
2021/04/09 09:49:26;;;;;;;7.30;2.97;;;11.40;78.60;;;;;;5054115;28;20110;-77
2021/04/09 09:51:52;;;;;;;4.95;2.83;;;11.50;77.50;;;;;;5054420;28;20120;-75
2021/04/09 09:54:22;;;;;;;8.32;3.88;;;11.60;76.10;;;;;;5054391;28;20107;-78
2021/04/09 09:56:48;;;;;;;5.80;2.70;;;11.60;75.90;;;;;;5054670;28;20091;-74
2021/04/09 09:59:22;;;;;;;6.53;3.38;;;11.70;75.10;;;;;;5056812;28;20033;-74
2021/04/09 10:02:06;;;;;;;6.20;3.38;;;11.80;75.00;;;;;;5054326;28;20040;-72
2021/04/09 10:04:32;;;;;;;6.55;3.00;;;11.70;75.10;;;;;;5052507;28;20033;-71
2021/04/09 10:06:57;;;;;;;7.45;3.78;;;11.70;74.80;;;;;;5054200;28;20090;-77
2021/04/09 10:09:31;;;;;;;7.05;3.30;;;11.90;74.70;;;;;;5053429;28;20091;-73
2021/04/09 10:11:59;;;;;;;8.52;3.38;;;11.90;73.40;;;;;;5052623;28;20534;-72
2021/04/09 10:14:28;;;;;;;6.18;3.25;;;12.00;72.70;;;;;;5053721;28;20083;-74
2021/04/09 10:16:59;;;;;;;7.80;3.13;;;12.00;73.30;;;;;;5052728;28;20108;-74
2021/04/09 10:19:25;;;;;;;;;;;12.00;72.80;;;;;;5052858;28;20037;-73
2021/04/09 10:21:52;;;;;;;5.60;3.17;;;11.90;72.80;;;;;;5053960;28;19920;-74
2021/04/09 10:24:22;;;;;;;11.15;3.55;;;12.10;72.90;;;;;;5051647;28;20033;-71
2021/04/09 10:26:56;;;;;;;9.35;3.35;;;12.10;73.90;;;;;;5053398;28;20458;-74
2021/04/09 10:29:48;;;;;;;5.72;3.08;;;12.20;73.90;;;;;;5053474;28;20075;-70
2021/04/09 10:32:21;;;;;;;8.68;3.40;;;12.40;72.40;;;;;;5050280;28;20073;-73
2021/04/09 10:34:48;;;;;;;10.52;3.65;;;12.30;73.70;;;;;;5051938;28;20119;-73
2021/04/09 10:37:25;;;;;;;7.72;3.13;;;12.50;72.00;;;;;;5053620;28;20040;-71
2021/04/09 10:39:52;;;;;;;6.80;3.13;;;12.60;71.30;;;;;;5053460;28;20033;-75
2021/04/09 10:42:20;;;;;;;9.05;3.55;;;12.60;70.20;;;;;;5053125;28;20576;-78
2021/04/09 10:44:46;;;;;;;7.85;3.45;;;12.40;70.00;;;;;;5052840;28;20072;-68
2021/04/09 10:47:12;;;;;;;11.60;3.70;;;12.40;70.70;;;;;;5053250;28;20033;-77
2021/04/09 10:49:41;;;;;;;7.47;3.22;;;12.40;70.50;;;;;;5051738;28;20039;-75
2021/04/09 10:52:11;;;;;;;7.03;3.38;;;12.50;71.80;;;;;;5053256;28;20039;-73
2021/04/09 10:54:41;;;;;;;9.07;3.42;;;12.40;70.90;;;;;;5051889;28;20472;-72
2021/04/09 10:57:13;;;;;;;8.18;3.85;;;12.50;71.50;;;;;;5035208;28;20041;-73
2021/04/09 10:59:45;;;;;;;10.55;3.65;;;12.60;70.90;;;;;;5052856;28;20060;-73
2021/04/09 11:02:19;;;;;;;8.05;3.40;;;12.90;70.00;;;;;;5053085;28;20036;-73
2021/04/09 11:04:59;;;;;;;8.70;3.35;;;13.20;70.10;;;;;;5051351;28;20466;-72
2021/04/09 11:07:48;;;;;;;10.52;3.30;;;13.30;69.00;;;;;;5051956;28;20025;-73
2021/04/09 11:10:28;;;;;;;12.50;3.92;;;13.10;68.60;;;;;;5052377;28;20081;-73
2021/04/09 11:12:54;;;;;;;10.20;3.80;;;13.10;69.50;;;;;;5052582;28;20456;-73
2021/04/09 11:15:40;;;;;;;8.30;3.28;;;13.30;69.10;;;;;;5053493;28;20049;-74
2021/04/09 11:18:06;;;;;;;7.07;3.10;;;13.70;67.80;;;;;;5052754;28;20056;-73
2021/04/09 11:20:44;;;;;;;10.00;3.58;;;13.80;67.50;;;;;;5052157;28;20481;-73
2021/04/09 11:23:13;;;;;;;8.30;3.85;;;13.50;68.60;;;;;;5052652;28;20029;-73
2021/04/09 11:25:42;;;;;;;11.20;3.40;;;13.80;68.40;;;;;;5052322;28;20043;-74
2021/04/09 11:28:26;;;;;;;6.97;3.58;;;14.00;68.50;;;;;;5052276;28;20090;-72
2021/04/09 11:30:56;;;;;;;10.98;3.75;;;13.90;69.10;;;;;;5051047;28;20375;-73
2021/04/09 11:33:40;;;;;;;7.95;3.47;;;13.90;67.20;;;;;;5050833;28;20052;-73
2021/04/09 11:36:21;;;;;;;7.88;3.28;;;13.90;67.40;;;;;;5052027;28;20032;-73
2021/04/09 11:38:53;;;;;;;7.43;3.58;;;14.20;65.80;;;;;;5052039;28;20040;-72
2021/04/09 11:41:33;;;;;;;11.15;3.83;;;14.50;64.10;;;;;;5052512;28;20029;-72
2021/04/09 11:44:01;;;;;;;7.57;3.65;;;14.50;65.40;;;;;;5052351;28;20127;-73
2021/04/09 11:46:34;;;;;;;9.65;3.20;;;14.40;64.90;;;;;;5051987;28;20386;-74
2021/04/09 11:49:02;;;;;;;7.97;3.92;;;14.50;65.60;;;;;;5052354;28;20083;-74
2021/04/09 11:51:28;;;;;;;9.00;3.30;;;14.90;62.90;;;;;;5053217;28;20068;-73
2021/04/09 11:54:01;;;;;;;6.78;3.42;;;14.90;63.00;;;;;;5050700;28;20385;-73
2021/04/09 11:56:48;;;;;;;9.82;3.47;;;15.20;63.40;;;;;;5052017;28;20036;-72
2021/04/09 11:59:19;;;;;;;6.13;3.35;;;15.20;61.00;;;;;;5052295;28;20115;-73
2021/04/09 12:01:46;;;;;;;7.97;3.28;;;15.40;61.50;;;;;;5052069;28;20029;-73
2021/04/09 12:04:34;;;;;;;9.70;3.17;;;15.40;61.00;;;;;;5052015;28;20036;-74
2021/04/09 12:07:02;;;;;;;5.03;3.13;;;15.40;60.40;;;;;;5052111;28;20029;-72
2021/04/09 12:09:29;;;;;;;6.28;3.15;;;15.60;59.90;;;;;;5051914;28;20045;-73
2021/04/09 12:11:55;;;;;;;13.27;2.90;;;15.70;60.70;;;;;;5052179;28;20036;-73
2021/04/09 12:14:40;;;;;;;8.90;2.80;;;15.90;60.00;;;;;;5052153;28;20513;-73
2021/04/09 12:17:08;;;;;;;5.50;2.63;;;16.10;59.70;;;;;;5051841;28;20493;-73
2021/04/09 12:19:34;;;;;;;8.45;2.90;;;16.20;58.10;;;;;;5051595;28;20403;-74
2021/04/09 12:22:01;;;;;;;6.45;2.90;;;16.10;58.20;;;;;;5051866;28;20056;-73
2021/04/09 12:24:27;;;;;;;7.88;2.47;;;16.00;58.00;;;;;;5050637;28;20029;-73
2021/04/09 12:26:53;;;;;;;7.70;2.63;;;16.00;58.90;;;;;;5051368;28;20112;-73
2021/04/09 12:29:19;;;;;;;8.95;2.97;;;15.90;59.10;;;;;;5051958;28;20112;-74
2021/04/09 12:31:45;;;;;;;5.88;2.70;;;15.80;58.80;;;;;;5051750;28;20090;-74
2021/04/09 12:34:10;;;;;;;6.53;2.80;;;15.90;59.40;;;;;;5051647;28;20469;-72
2021/04/09 12:36:38;;;;;;;7.60;2.85;;;15.90;59.20;;;;;;5050383;28;20040;-73
2021/04/09 12:39:08;;;;;;;17.08;2.78;;;15.50;61.00;;;;;;5051651;28;20116;-73
2021/04/09 12:41:35;;;;;;;6.07;2.42;;;15.50;59.80;;;;;;5049979;28;20087;-74
2021/04/09 12:44:02;;;;;;;8.32;2.67;;;15.80;60.10;;;;;;5051505;28;20054;-73
2021/04/09 12:46:28;;;;;;;9.65;2.90;;;16.10;60.50;;;;;;5051492;28;20351;-73
2021/04/09 12:48:55;;;;;;;10.88;2.85;;;16.30;57.90;;;;;;5055501;28;20478;-73
2021/04/09 12:51:23;;;;;;;9.35;2.95;;;16.20;59.50;;;;;;5055390;28;20032;-73
2021/04/09 12:53:49;;;;;;;6.82;2.70;;;16.00;59.60;;;;;;5055043;28;20501;-73
2021/04/09 12:56:16;;;;;;;8.30;3.08;;;16.10;59.70;;;;;;5055341;28;20121;-72
2021/04/09 12:58:43;;;;;;;5.45;2.35;;;16.10;60.50;;;;;;5055314;28;20035;-73
2021/04/09 13:01:10;;;;;;;9.90;2.67;;;16.00;60.30;;;;;;5055345;28;20572;-73
2021/04/09 13:03:36;;;;;;;8.70;3.03;;;16.20;59.80;;;;;;5053869;28;20033;-72
2021/04/09 13:06:09;;;;;;;6.20;2.75;;;16.00;59.70;;;;;;5055288;28;20107;-72